sensor_id;sensor_type;location;lat;lon;timestamp;pressure;altitude;pressure_sealevel;temperature;humidity
60267;BME280;46125;61.360;-149.532;2023-05-18T00:01:32;100270.76;;;16.14;30.85
60267;BME280;46125;61.360;-149.532;2023-05-18T00:04:00;100267.57;;;15.64;31.65
60267;BME280;46125;61.360;-149.532;2023-05-18T00:06:29;100265.50;;;16.36;31.59
60267;BME280;46125;61.360;-149.532;2023-05-18T00:08:57;100263.02;;;15.03;32.69
60267;BME280;46125;61.360;-149.532;2023-05-18T00:11:26;100262.48;;;14.15;35.13
60267;BME280;46125;61.360;-149.532;2023-05-18T00:13:55;100257.64;;;14.94;33.66
60267;BME280;46125;61.360;-149.532;2023-05-18T00:16:24;100256.62;;;15.03;34.32
60267;BME280;46125;61.360;-149.532;2023-05-18T00:18:52;100254.59;;;15.60;32.00
60267;BME280;46125;61.360;-149.532;2023-05-18T00:21:21;100257.81;;;15.42;33.24
60267;BME280;46125;61.360;-149.532;2023-05-18T00:23:49;100257.87;;;14.77;35.21
60267;BME280;46125;61.360;-149.532;2023-05-18T00:26:18;100256.71;;;14.01;34.61
60267;BME280;46125;61.360;-149.532;2023-05-18T00:28:46;100257.70;;;14.38;34.89
60267;BME280;46125;61.360;-149.532;2023-05-18T00:31:15;100255.47;;;15.84;32.73
60267;BME280;46125;61.360;-149.532;2023-05-18T00:33:43;100252.66;;;15.47;33.63
60267;BME280;46125;61.360;-149.532;2023-05-18T00:36:12;100254.93;;;14.05;34.28
60267;BME280;46125;61.360;-149.532;2023-05-18T00:38:40;100255.74;;;14.89;33.07
60267;BME280;46125;61.360;-149.532;2023-05-18T00:41:08;100257.89;;;15.24;34.16
60267;BME280;46125;61.360;-149.532;2023-05-18T00:43:39;100257.26;;;15.18;31.91
60267;BME280;46125;61.360;-149.532;2023-05-18T00:46:08;100254.06;;;15.00;32.63
60267;BME280;46125;61.360;-149.532;2023-05-18T00:48:42;100258.65;;;14.57;34.40
60267;BME280;46125;61.360;-149.532;2023-05-18T00:51:11;100257.50;;;14.64;34.37
60267;BME280;46125;61.360;-149.532;2023-05-18T00:53:41;100262.17;;;14.60;33.35
60267;BME280;46125;61.360;-149.532;2023-05-18T00:56:10;100261.28;;;14.43;34.20
60267;BME280;46125;61.360;-149.532;2023-05-18T00:58:39;100265.78;;;13.87;34.70
60267;BME280;46125;61.360;-149.532;2023-05-18T01:01:09;100262.40;;;13.59;34.14
60267;BME280;46125;61.360;-149.532;2023-05-18T01:03:37;100265.75;;;14.36;33.08
60267;BME280;46125;61.360;-149.532;2023-05-18T01:06:06;100265.82;;;13.18;34.60
60267;BME280;46125;61.360;-149.532;2023-05-18T01:08:35;100263.26;;;13.14;37.06
60267;BME280;46125;61.360;-149.532;2023-05-18T01:11:09;100260.54;;;14.25;34.31
60267;BME280;46125;61.360;-149.532;2023-05-18T01:13:46;100260.33;;;14.60;36.00
60267;BME280;46125;61.360;-149.532;2023-05-18T01:16:22;100260.74;;;13.05;37.55
60267;BME280;46125;61.360;-149.532;2023-05-18T01:18:58;100259.14;;;12.91;36.58
60267;BME280;46125;61.360;-149.532;2023-05-18T01:21:43;100258.22;;;12.10;38.24
60267;BME280;46125;61.360;-149.532;2023-05-18T01:24:27;100258.49;;;12.86;37.87
60267;BME280;46125;61.360;-149.532;2023-05-18T01:27:00;100253.57;;;13.96;35.38
60267;BME280;46125;61.360;-149.532;2023-05-18T01:29:29;100253.27;;;14.49;33.88
60267;BME280;46125;61.360;-149.532;2023-05-18T01:31:58;100249.75;;;12.84;35.44
60267;BME280;46125;61.360;-149.532;2023-05-18T01:34:26;100247.58;;;13.17;35.30
60267;BME280;46125;61.360;-149.532;2023-05-18T01:36:55;100248.89;;;13.24;35.76
60267;BME280;46125;61.360;-149.532;2023-05-18T01:39:23;100250.66;;;14.85;33.41
60267;BME280;46125;61.360;-149.532;2023-05-18T01:41:57;100246.89;;;13.64;35.64
60267;BME280;46125;61.360;-149.532;2023-05-18T01:44:30;100250.59;;;13.71;35.76
60267;BME280;46125;61.360;-149.532;2023-05-18T01:47:11;100250.86;;;13.75;35.21
60267;BME280;46125;61.360;-149.532;2023-05-18T01:49:44;100250.82;;;13.32;36.29
60267;BME280;46125;61.360;-149.532;2023-05-18T01:52:17;100248.72;;;13.60;35.71
60267;BME280;46125;61.360;-149.532;2023-05-18T01:54:53;100250.36;;;13.26;36.42
60267;BME280;46125;61.360;-149.532;2023-05-18T01:57:25;100249.18;;;13.76;36.37
60267;BME280;46125;61.360;-149.532;2023-05-18T01:59:54;100254.15;;;13.41;36.18
60267;BME280;46125;61.360;-149.532;2023-05-18T02:02:24;100254.03;;;13.70;34.84
60267;BME280;46125;61.360;-149.532;2023-05-18T02:04:52;100251.33;;;14.31;34.44
60267;BME280;46125;61.360;-149.532;2023-05-18T02:07:21;100254.79;;;15.66;32.38
60267;BME280;46125;61.360;-149.532;2023-05-18T02:09:49;100256.56;;;16.47;30.97
60267;BME280;46125;61.360;-149.532;2023-05-18T02:12:18;100247.15;;;17.43;30.32
60267;BME280;46125;61.360;-149.532;2023-05-18T02:14:47;100249.12;;;16.77;30.48
60267;BME280;46125;61.360;-149.532;2023-05-18T02:17:17;100247.11;;;18.10;28.30
60267;BME280;46125;61.360;-149.532;2023-05-18T02:19:45;100245.26;;;16.65;30.35
60267;BME280;46125;61.360;-149.532;2023-05-18T02:22:13;100245.34;;;16.21;30.32
60267;BME280;46125;61.360;-149.532;2023-05-18T02:24:42;100244.32;;;15.79;30.99
60267;BME280;46125;61.360;-149.532;2023-05-18T02:27:10;100246.18;;;16.23;30.77
60267;BME280;46125;61.360;-149.532;2023-05-18T02:29:39;100241.29;;;15.30;31.65
60267;BME280;46125;61.360;-149.532;2023-05-18T02:32:08;100239.62;;;13.71;33.80
60267;BME280;46125;61.360;-149.532;2023-05-18T02:34:36;100232.89;;;13.08;34.48
60267;BME280;46125;61.360;-149.532;2023-05-18T02:37:05;100231.59;;;14.40;33.31
60267;BME280;46125;61.360;-149.532;2023-05-18T02:39:33;100231.64;;;12.28;36.12
60267;BME280;46125;61.360;-149.532;2023-05-18T02:42:02;100229.50;;;14.11;32.81
60267;BME280;46125;61.360;-149.532;2023-05-18T02:44:31;100227.01;;;14.15;33.66
60267;BME280;46125;61.360;-149.532;2023-05-18T02:46:59;100226.57;;;13.57;34.63
60267;BME280;46125;61.360;-149.532;2023-05-18T02:49:27;100227.25;;;13.00;36.12
60267;BME280;46125;61.360;-149.532;2023-05-18T02:51:56;100229.63;;;11.67;37.14
60267;BME280;46125;61.360;-149.532;2023-05-18T02:54:25;100227.15;;;12.01;36.87
60267;BME280;46125;61.360;-149.532;2023-05-18T02:56:53;100223.43;;;13.12;35.16
60267;BME280;46125;61.360;-149.532;2023-05-18T02:59:22;100224.55;;;12.78;36.17
60267;BME280;46125;61.360;-149.532;2023-05-18T03:01:50;100225.71;;;12.59;36.31
60267;BME280;46125;61.360;-149.532;2023-05-18T03:04:18;100231.90;;;12.02;38.30
60267;BME280;46125;61.360;-149.532;2023-05-18T03:06:47;100230.57;;;11.55;38.31
60267;BME280;46125;61.360;-149.532;2023-05-18T03:09:16;100225.92;;;11.33;39.21
60267;BME280;46125;61.360;-149.532;2023-05-18T03:11:44;100228.68;;;11.37;38.05
60267;BME280;46125;61.360;-149.532;2023-05-18T03:14:13;100229.85;;;11.66;37.41
60267;BME280;46125;61.360;-149.532;2023-05-18T03:16:41;100233.69;;;12.03;36.93
60267;BME280;46125;61.360;-149.532;2023-05-18T03:19:10;100232.53;;;12.29;36.90
60267;BME280;46125;61.360;-149.532;2023-05-18T03:21:39;100229.69;;;12.81;36.73
60267;BME280;46125;61.360;-149.532;2023-05-18T03:24:09;100235.22;;;12.49;35.68
60267;BME280;46125;61.360;-149.532;2023-05-18T03:26:37;100232.78;;;12.40;35.56
60267;BME280;46125;61.360;-149.532;2023-05-18T03:29:05;100227.81;;;12.99;35.78
60267;BME280;46125;61.360;-149.532;2023-05-18T03:31:34;100228.41;;;12.78;34.77
60267;BME280;46125;61.360;-149.532;2023-05-18T03:34:02;100229.58;;;11.92;36.63
60267;BME280;46125;61.360;-149.532;2023-05-18T03:36:31;100230.18;;;11.95;35.72
60267;BME280;46125;61.360;-149.532;2023-05-18T03:39:00;100223.23;;;11.55;36.82
60267;BME280;46125;61.360;-149.532;2023-05-18T03:41:28;100222.04;;;11.35;37.36
60267;BME280;46125;61.360;-149.532;2023-05-18T03:43:56;100221.90;;;10.91;37.24
60267;BME280;46125;61.360;-149.532;2023-05-18T03:46:25;100218.24;;;11.06;37.35
60267;BME280;46125;61.360;-149.532;2023-05-18T03:48:54;100214.25;;;11.29;36.62
60267;BME280;46125;61.360;-149.532;2023-05-18T03:51:22;100214.87;;;10.65;37.35
60267;BME280;46125;61.360;-149.532;2023-05-18T03:53:51;100211.10;;;9.00;39.91
60267;BME280;46125;61.360;-149.532;2023-05-18T03:56:19;100212.65;;;10.92;38.91
60267;BME280;46125;61.360;-149.532;2023-05-18T03:58:48;100213.21;;;9.26;40.41
60267;BME280;46125;61.360;-149.532;2023-05-18T04:01:16;100215.91;;;10.36;37.78
60267;BME280;46125;61.360;-149.532;2023-05-18T04:03:45;100215.37;;;10.88;37.83
60267;BME280;46125;61.360;-149.532;2023-05-18T04:06:13;100215.93;;;11.02;36.75
60267;BME280;46125;61.360;-149.532;2023-05-18T04:08:42;100218.79;;;11.04;37.58
60267;BME280;46125;61.360;-149.532;2023-05-18T04:11:11;100222.67;;;9.96;37.99
60267;BME280;46125;61.360;-149.532;2023-05-18T04:13:45;100226.66;;;10.34;38.31
60267;BME280;46125;61.360;-149.532;2023-05-18T04:16:13;100226.71;;;10.24;38.62
60267;BME280;46125;61.360;-149.532;2023-05-18T04:18:42;100225.66;;;9.65;39.74
60267;BME280;46125;61.360;-149.532;2023-05-18T04:21:11;100224.42;;;10.50;38.38
60267;BME280;46125;61.360;-149.532;2023-05-18T04:23:40;100219.43;;;9.70;39.18
60267;BME280;46125;61.360;-149.532;2023-05-18T04:26:08;100224.04;;;10.27;39.56
60267;BME280;46125;61.360;-149.532;2023-05-18T04:28:37;100222.51;;;9.48;39.81
60267;BME280;46125;61.360;-149.532;2023-05-18T04:31:05;100221.22;;;10.54;37.23
60267;BME280;46125;61.360;-149.532;2023-05-18T04:33:44;100221.23;;;10.32;37.43
60267;BME280;46125;61.360;-149.532;2023-05-18T04:36:13;100220.89;;;10.67;37.23
60267;BME280;46125;61.360;-149.532;2023-05-18T04:38:41;100216.99;;;9.80;37.70
60267;BME280;46125;61.360;-149.532;2023-05-18T04:41:10;100215.75;;;11.06;37.73
60267;BME280;46125;61.360;-149.532;2023-05-18T04:43:38;100215.06;;;11.52;35.06
60267;BME280;46125;61.360;-149.532;2023-05-18T04:46:07;100212.77;;;10.77;36.03
60267;BME280;46125;61.360;-149.532;2023-05-18T04:48:36;100207.18;;;10.45;37.53
60267;BME280;46125;61.360;-149.532;2023-05-18T04:51:04;100208.13;;;10.41;37.35
60267;BME280;46125;61.360;-149.532;2023-05-18T04:53:33;100209.32;;;10.38;37.49
60267;BME280;46125;61.360;-149.532;2023-05-18T04:56:01;100213.27;;;10.12;37.80
60267;BME280;46125;61.360;-149.532;2023-05-18T04:58:29;100214.92;;;10.81;36.55
60267;BME280;46125;61.360;-149.532;2023-05-18T05:00:58;100215.85;;;11.27;36.28
60267;BME280;46125;61.360;-149.532;2023-05-18T05:03:26;100212.56;;;11.84;34.93
60267;BME280;46125;61.360;-149.532;2023-05-18T05:05:55;100214.26;;;11.59;35.72
60267;BME280;46125;61.360;-149.532;2023-05-18T05:08:23;100215.26;;;11.20;36.26
60267;BME280;46125;61.360;-149.532;2023-05-18T05:10:52;100217.09;;;11.63;35.78
60267;BME280;46125;61.360;-149.532;2023-05-18T05:13:22;100213.56;;;10.75;37.00
60267;BME280;46125;61.360;-149.532;2023-05-18T05:15:56;100216.13;;;11.20;36.67
60267;BME280;46125;61.360;-149.532;2023-05-18T05:18:26;100217.51;;;10.14;38.14
60267;BME280;46125;61.360;-149.532;2023-05-18T05:20:56;100219.80;;;10.34;38.34
60267;BME280;46125;61.360;-149.532;2023-05-18T05:23:25;100221.85;;;10.12;38.08
60267;BME280;46125;61.360;-149.532;2023-05-18T05:25:54;100223.08;;;10.84;37.73
60267;BME280;46125;61.360;-149.532;2023-05-18T05:28:22;100226.88;;;11.06;36.78
60267;BME280;46125;61.360;-149.532;2023-05-18T05:30:51;100229.30;;;10.23;38.79
60267;BME280;46125;61.360;-149.532;2023-05-18T05:33:19;100225.91;;;10.70;36.74
60267;BME280;46125;61.360;-149.532;2023-05-18T05:35:48;100228.89;;;11.26;36.79
60267;BME280;46125;61.360;-149.532;2023-05-18T05:38:16;100229.00;;;10.77;36.81
60267;BME280;46125;61.360;-149.532;2023-05-18T05:40:45;100228.62;;;10.39;37.86
60267;BME280;46125;61.360;-149.532;2023-05-18T05:43:23;100231.12;;;10.29;38.22
60267;BME280;46125;61.360;-149.532;2023-05-18T05:45:53;100228.65;;;10.57;37.77
60267;BME280;46125;61.360;-149.532;2023-05-18T05:48:21;100229.00;;;10.58;37.48
60267;BME280;46125;61.360;-149.532;2023-05-18T05:50:50;100224.84;;;10.28;37.12
60267;BME280;46125;61.360;-149.532;2023-05-18T05:53:19;100224.43;;;10.35;37.39
60267;BME280;46125;61.360;-149.532;2023-05-18T05:55:47;100226.31;;;10.83;36.93
60267;BME280;46125;61.360;-149.532;2023-05-18T05:58:16;100227.72;;;10.85;36.94
60267;BME280;46125;61.360;-149.532;2023-05-18T06:00:45;100229.17;;;10.70;37.19
60267;BME280;46125;61.360;-149.532;2023-05-18T06:03:13;100230.00;;;10.61;37.62
60267;BME280;46125;61.360;-149.532;2023-05-18T06:05:42;100230.20;;;10.45;38.20
60267;BME280;46125;61.360;-149.532;2023-05-18T06:08:10;100227.97;;;10.10;38.50
60267;BME280;46125;61.360;-149.532;2023-05-18T06:10:40;100226.03;;;9.65;38.98
60267;BME280;46125;61.360;-149.532;2023-05-18T06:13:08;100227.81;;;9.55;39.24
60267;BME280;46125;61.360;-149.532;2023-05-18T06:15:36;100227.45;;;9.86;38.54
60267;BME280;46125;61.360;-149.532;2023-05-18T06:18:06;100226.57;;;10.03;38.31
60267;BME280;46125;61.360;-149.532;2023-05-18T06:20:36;100224.20;;;10.32;38.06
60267;BME280;46125;61.360;-149.532;2023-05-18T06:23:04;100226.23;;;9.58;38.55
60267;BME280;46125;61.360;-149.532;2023-05-18T06:25:34;100224.86;;;10.00;38.37
60267;BME280;46125;61.360;-149.532;2023-05-18T06:28:02;100222.09;;;9.77;37.90
60267;BME280;46125;61.360;-149.532;2023-05-18T06:30:31;100220.99;;;9.74;37.90
60267;BME280;46125;61.360;-149.532;2023-05-18T06:33:00;100223.70;;;9.59;38.12
60267;BME280;46125;61.360;-149.532;2023-05-18T06:35:28;100231.40;;;9.15;39.02
60267;BME280;46125;61.360;-149.532;2023-05-18T06:37:56;100227.11;;;8.68;40.04
60267;BME280;46125;61.360;-149.532;2023-05-18T06:40:25;100224.32;;;8.92;40.12
60267;BME280;46125;61.360;-149.532;2023-05-18T06:42:53;100228.17;;;8.56;40.54
60267;BME280;46125;61.360;-149.532;2023-05-18T06:45:22;100227.98;;;8.88;40.30
60267;BME280;46125;61.360;-149.532;2023-05-18T06:47:51;100233.01;;;8.77;39.74
60267;BME280;46125;61.360;-149.532;2023-05-18T06:50:19;100227.07;;;8.87;39.54
60267;BME280;46125;61.360;-149.532;2023-05-18T06:52:48;100228.79;;;8.88;39.39
60267;BME280;46125;61.360;-149.532;2023-05-18T06:55:17;100229.59;;;8.87;39.25
60267;BME280;46125;61.360;-149.532;2023-05-18T06:57:45;100226.43;;;9.06;39.08
60267;BME280;46125;61.360;-149.532;2023-05-18T07:00:14;100225.65;;;8.95;39.29
60267;BME280;46125;61.360;-149.532;2023-05-18T07:02:43;100225.64;;;8.90;38.74
60267;BME280;46125;61.360;-149.532;2023-05-18T07:05:11;100225.32;;;8.52;39.55
60267;BME280;46125;61.360;-149.532;2023-05-18T07:07:40;100226.50;;;8.30;40.55
60267;BME280;46125;61.360;-149.532;2023-05-18T07:10:09;100226.09;;;7.56;41.78
60267;BME280;46125;61.360;-149.532;2023-05-18T07:12:38;100225.22;;;7.87;41.44
60267;BME280;46125;61.360;-149.532;2023-05-18T07:15:07;100227.27;;;7.67;41.75
60267;BME280;46125;61.360;-149.532;2023-05-18T07:17:36;100223.50;;;7.52;41.98
60267;BME280;46125;61.360;-149.532;2023-05-18T07:20:05;100224.19;;;7.47;42.29
60267;BME280;46125;61.360;-149.532;2023-05-18T07:22:41;100221.37;;;7.49;42.17
60267;BME280;46125;61.360;-149.532;2023-05-18T07:25:09;100221.05;;;7.29;42.36
60267;BME280;46125;61.360;-149.532;2023-05-18T07:27:39;100221.07;;;7.38;42.64
60267;BME280;46125;61.360;-149.532;2023-05-18T07:30:08;100221.79;;;6.64;42.57
60267;BME280;46125;61.360;-149.532;2023-05-18T07:32:37;100220.90;;;7.48;41.64
60267;BME280;46125;61.360;-149.532;2023-05-18T07:35:07;100220.82;;;7.65;41.20
60267;BME280;46125;61.360;-149.532;2023-05-18T07:37:35;100224.37;;;7.54;41.36
60267;BME280;46125;61.360;-149.532;2023-05-18T07:40:05;100228.59;;;7.73;41.10
60267;BME280;46125;61.360;-149.532;2023-05-18T07:42:33;100224.72;;;7.98;40.65
60267;BME280;46125;61.360;-149.532;2023-05-18T07:45:02;100227.88;;;7.94;40.57
60267;BME280;46125;61.360;-149.532;2023-05-18T07:47:30;100225.73;;;7.70;41.29
60267;BME280;46125;61.360;-149.532;2023-05-18T07:49:59;100224.85;;;7.06;42.11
60267;BME280;46125;61.360;-149.532;2023-05-18T07:52:27;100225.94;;;7.33;41.78
60267;BME280;46125;61.360;-149.532;2023-05-18T07:54:56;100226.47;;;7.33;41.56
60267;BME280;46125;61.360;-149.532;2023-05-18T07:57:25;100226.89;;;7.63;40.95
60267;BME280;46125;61.360;-149.532;2023-05-18T07:59:53;100223.74;;;7.66;40.93
60267;BME280;46125;61.360;-149.532;2023-05-18T08:02:22;100226.64;;;7.22;41.80
60267;BME280;46125;61.360;-149.532;2023-05-18T08:04:50;100228.11;;;7.35;41.92
60267;BME280;46125;61.360;-149.532;2023-05-18T08:07:19;100227.07;;;7.23;42.04
60267;BME280;46125;61.360;-149.532;2023-05-18T08:09:47;100222.53;;;7.04;41.90
60267;BME280;46125;61.360;-149.532;2023-05-18T08:12:16;100222.60;;;6.93;41.00
60267;BME280;46125;61.360;-149.532;2023-05-18T08:14:45;100220.75;;;7.27;40.97
60267;BME280;46125;61.360;-149.532;2023-05-18T08:17:13;100222.97;;;7.30;40.86
60267;BME280;46125;61.360;-149.532;2023-05-18T08:19:42;100222.40;;;7.04;40.80
60267;BME280;46125;61.360;-149.532;2023-05-18T08:22:10;100225.83;;;7.36;40.11
60267;BME280;46125;61.360;-149.532;2023-05-18T08:24:39;100225.19;;;7.56;39.74
60267;BME280;46125;61.360;-149.532;2023-05-18T08:27:07;100219.55;;;7.57;39.51
60267;BME280;46125;61.360;-149.532;2023-05-18T08:29:37;100217.58;;;7.83;40.60
60267;BME280;46125;61.360;-149.532;2023-05-18T08:32:06;100217.41;;;7.10;42.71
60267;BME280;46125;61.360;-149.532;2023-05-18T08:34:35;100216.72;;;7.50;42.18
60267;BME280;46125;61.360;-149.532;2023-05-18T08:37:04;100210.90;;;7.53;42.02
60267;BME280;46125;61.360;-149.532;2023-05-18T08:39:32;100206.21;;;7.60;41.54
60267;BME280;46125;61.360;-149.532;2023-05-18T08:42:05;100203.75;;;7.56;41.54
60267;BME280;46125;61.360;-149.532;2023-05-18T08:44:39;100203.61;;;7.50;42.06
60267;BME280;46125;61.360;-149.532;2023-05-18T08:47:09;100205.46;;;7.53;41.87
60267;BME280;46125;61.360;-149.532;2023-05-18T08:49:37;100210.40;;;7.62;41.65
60267;BME280;46125;61.360;-149.532;2023-05-18T08:52:09;100204.52;;;7.65;41.54
60267;BME280;46125;61.360;-149.532;2023-05-18T08:54:41;100206.05;;;7.42;41.49
60267;BME280;46125;61.360;-149.532;2023-05-18T08:57:10;100206.50;;;7.50;42.74
60267;BME280;46125;61.360;-149.532;2023-05-18T08:59:41;100203.53;;;6.71;44.73
60267;BME280;46125;61.360;-149.532;2023-05-18T09:02:13;100204.20;;;7.12;43.42
60267;BME280;46125;61.360;-149.532;2023-05-18T09:04:42;100200.62;;;7.27;42.83
60267;BME280;46125;61.360;-149.532;2023-05-18T09:07:11;100198.92;;;7.33;42.38
60267;BME280;46125;61.360;-149.532;2023-05-18T09:09:40;100195.53;;;7.36;42.40
60267;BME280;46125;61.360;-149.532;2023-05-18T09:12:09;100196.44;;;7.37;42.37
60267;BME280;46125;61.360;-149.532;2023-05-18T09:14:38;100200.71;;;7.32;42.57
60267;BME280;46125;61.360;-149.532;2023-05-18T09:17:07;100199.66;;;7.34;42.51
60267;BME280;46125;61.360;-149.532;2023-05-18T09:19:36;100195.06;;;7.43;42.34
60267;BME280;46125;61.360;-149.532;2023-05-18T09:22:05;100190.48;;;7.42;42.50
60267;BME280;46125;61.360;-149.532;2023-05-18T09:24:34;100192.81;;;7.39;42.62
60267;BME280;46125;61.360;-149.532;2023-05-18T09:27:03;100188.01;;;7.28;42.84
60267;BME280;46125;61.360;-149.532;2023-05-18T09:29:32;100186.63;;;7.31;42.77
60267;BME280;46125;61.360;-149.532;2023-05-18T09:32:02;100181.81;;;7.13;43.13
60267;BME280;46125;61.360;-149.532;2023-05-18T09:34:40;100181.04;;;7.22;43.65
60267;BME280;46125;61.360;-149.532;2023-05-18T09:37:09;100179.58;;;7.29;43.59
60267;BME280;46125;61.360;-149.532;2023-05-18T09:39:38;100180.05;;;7.26;43.61
60267;BME280;46125;61.360;-149.532;2023-05-18T09:42:06;100178.88;;;6.95;43.99
60267;BME280;46125;61.360;-149.532;2023-05-18T09:44:35;100180.28;;;6.96;43.64
60267;BME280;46125;61.360;-149.532;2023-05-18T09:47:07;100182.24;;;6.99;43.46
60267;BME280;46125;61.360;-149.532;2023-05-18T09:49:35;100178.68;;;7.01;43.32
60267;BME280;46125;61.360;-149.532;2023-05-18T09:52:07;100176.66;;;7.07;43.82
60267;BME280;46125;61.360;-149.532;2023-05-18T09:54:36;100176.06;;;6.99;43.63
60267;BME280;46125;61.360;-149.532;2023-05-18T09:57:05;100171.89;;;7.01;43.77
60267;BME280;46125;61.360;-149.532;2023-05-18T09:59:35;100170.49;;;7.12;43.98
60267;BME280;46125;61.360;-149.532;2023-05-18T10:02:11;100169.85;;;7.11;43.93
60267;BME280;46125;61.360;-149.532;2023-05-18T10:04:41;100166.26;;;6.36;45.51
60267;BME280;46125;61.360;-149.532;2023-05-18T10:07:10;100159.59;;;5.83;46.75
60267;BME280;46125;61.360;-149.532;2023-05-18T10:09:40;100158.24;;;6.47;45.44
60267;BME280;46125;61.360;-149.532;2023-05-18T10:12:11;100157.49;;;6.60;45.15
60267;BME280;46125;61.360;-149.532;2023-05-18T10:14:42;100155.11;;;6.63;45.46
60267;BME280;46125;61.360;-149.532;2023-05-18T10:17:12;100154.35;;;6.65;44.90
60267;BME280;46125;61.360;-149.532;2023-05-18T10:19:42;100154.77;;;7.02;44.56
60267;BME280;46125;61.360;-149.532;2023-05-18T10:22:11;100155.62;;;6.84;45.11
60267;BME280;46125;61.360;-149.532;2023-05-18T10:24:44;100155.37;;;6.56;44.65
60267;BME280;46125;61.360;-149.532;2023-05-18T10:27:14;100151.74;;;6.66;44.39
60267;BME280;46125;61.360;-149.532;2023-05-18T10:29:45;100147.21;;;7.26;44.21
60267;BME280;46125;61.360;-149.532;2023-05-18T10:32:16;100143.21;;;6.80;44.00
60267;BME280;46125;61.360;-149.532;2023-05-18T10:34:45;100144.75;;;6.85;43.74
60267;BME280;46125;61.360;-149.532;2023-05-18T10:37:16;100142.33;;;6.83;43.55
60267;BME280;46125;61.360;-149.532;2023-05-18T10:39:45;100143.64;;;7.09;43.75
60267;BME280;46125;61.360;-149.532;2023-05-18T10:42:15;100142.67;;;7.08;43.95
60267;BME280;46125;61.360;-149.532;2023-05-18T10:44:44;100142.51;;;6.23;46.48
60267;BME280;46125;61.360;-149.532;2023-05-18T10:47:15;100143.98;;;5.44;48.23
60267;BME280;46125;61.360;-149.532;2023-05-18T10:49:45;100147.20;;;5.02;49.42
60267;BME280;46125;61.360;-149.532;2023-05-18T10:52:16;100144.43;;;4.80;49.86
60267;BME280;46125;61.360;-149.532;2023-05-18T10:54:45;100146.02;;;4.83;50.00
60267;BME280;46125;61.360;-149.532;2023-05-18T10:57:17;100144.74;;;4.45;50.46
60267;BME280;46125;61.360;-149.532;2023-05-18T10:59:47;100145.81;;;4.56;50.07
60267;BME280;46125;61.360;-149.532;2023-05-18T11:02:17;100142.28;;;5.47;48.28
60267;BME280;46125;61.360;-149.532;2023-05-18T11:04:47;100138.74;;;5.46;47.59
60267;BME280;46125;61.360;-149.532;2023-05-18T11:07:16;100139.55;;;5.79;48.03
60267;BME280;46125;61.360;-149.532;2023-05-18T11:09:46;100140.98;;;5.69;47.85
60267;BME280;46125;61.360;-149.532;2023-05-18T11:12:17;100138.95;;;5.94;47.65
60267;BME280;46125;61.360;-149.532;2023-05-18T11:14:50;100137.29;;;5.82;47.74
60267;BME280;46125;61.360;-149.532;2023-05-18T11:17:20;100133.16;;;5.92;48.22
60267;BME280;46125;61.360;-149.532;2023-05-18T11:20:25;100132.18;;;5.32;49.49
60267;BME280;46125;61.360;-149.532;2023-05-18T11:23:02;100127.15;;;6.25;47.74
60267;BME280;46125;61.360;-149.532;2023-05-18T11:25:41;100124.41;;;6.21;46.89
60267;BME280;46125;61.360;-149.532;2023-05-18T11:28:11;100120.57;;;6.14;46.84
60267;BME280;46125;61.360;-149.532;2023-05-18T11:30:56;100112.70;;;6.04;46.86
60267;BME280;46125;61.360;-149.532;2023-05-18T11:33:28;100105.63;;;6.06;47.25
60267;BME280;46125;61.360;-149.532;2023-05-18T11:36:00;100102.74;;;6.54;45.98
60267;BME280;46125;61.360;-149.532;2023-05-18T11:38:49;100101.54;;;6.36;46.18
60267;BME280;46125;61.360;-149.532;2023-05-18T11:41:34;100096.95;;;6.21;47.90
60267;BME280;46125;61.360;-149.532;2023-05-18T11:44:21;100095.37;;;6.66;46.24
60267;BME280;46125;61.360;-149.532;2023-05-18T11:46:55;100091.58;;;7.05;45.85
60267;BME280;46125;61.360;-149.532;2023-05-18T11:49:28;100092.72;;;6.94;45.45
60267;BME280;46125;61.360;-149.532;2023-05-18T11:52:01;100093.91;;;6.91;45.11
60267;BME280;46125;61.360;-149.532;2023-05-18T11:54:36;100091.38;;;7.10;44.75
60267;BME280;46125;61.360;-149.532;2023-05-18T11:57:05;100088.32;;;7.20;44.89
60267;BME280;46125;61.360;-149.532;2023-05-18T11:59:38;100085.40;;;7.52;45.37
60267;BME280;46125;61.360;-149.532;2023-05-18T12:02:21;100081.70;;;7.14;45.42
60267;BME280;46125;61.360;-149.532;2023-05-18T12:04:52;100079.38;;;7.35;45.29
60267;BME280;46125;61.360;-149.532;2023-05-18T12:07:22;100082.74;;;6.68;45.97
60267;BME280;46125;61.360;-149.532;2023-05-18T12:09:51;100078.11;;;7.11;44.93
60267;BME280;46125;61.360;-149.532;2023-05-18T12:12:20;100081.55;;;7.37;44.45
60267;BME280;46125;61.360;-149.532;2023-05-18T12:14:54;100076.79;;;7.55;44.10
60267;BME280;46125;61.360;-149.532;2023-05-18T12:17:22;100075.92;;;7.42;44.44
60267;BME280;46125;61.360;-149.532;2023-05-18T12:19:51;100075.28;;;7.67;43.64
60267;BME280;46125;61.360;-149.532;2023-05-18T12:22:19;100070.57;;;7.64;44.11
60267;BME280;46125;61.360;-149.532;2023-05-18T12:24:51;100073.37;;;7.65;44.25
60267;BME280;46125;61.360;-149.532;2023-05-18T12:27:21;100075.39;;;7.62;45.10
60267;BME280;46125;61.360;-149.532;2023-05-18T12:29:49;100081.43;;;7.68;45.68
60267;BME280;46125;61.360;-149.532;2023-05-18T12:32:19;100086.09;;;7.50;45.52
60267;BME280;46125;61.360;-149.532;2023-05-18T12:34:50;100088.13;;;7.65;45.08
60267;BME280;46125;61.360;-149.532;2023-05-18T12:37:22;100087.13;;;7.14;44.97
60267;BME280;46125;61.360;-149.532;2023-05-18T12:39:52;100088.88;;;7.73;44.68